sensor_id;sensor_type;location;lat;lon;timestamp;P1;durP1;ratioP1;P2;durP2;ratioP2
10725;SDS011;5414;59.782;16.378;2022-07-17T00:01:19;0.70;;;0.70;;
10725;SDS011;5414;59.782;16.378;2022-07-17T00:03:45;0.90;;;0.50;;
10725;SDS011;5414;59.782;16.378;2022-07-17T00:06:12;1.13;;;0.67;;
10725;SDS011;5414;59.782;16.378;2022-07-17T00:08:38;0.70;;;0.50;;
10725;SDS011;5414;59.782;16.378;2022-07-17T00:11:04;0.50;;;0.50;;
10725;SDS011;5414;59.782;16.378;2022-07-17T00:13:30;0.60;;;0.60;;
10725;SDS011;5414;59.782;16.378;2022-07-17T00:15:56;0.70;;;0.60;;
10725;SDS011;5414;59.782;16.378;2022-07-17T00:18:23;0.43;;;0.43;;
10725;SDS011;5414;59.782;16.378;2022-07-17T00:20:49;0.50;;;0.50;;
10725;SDS011;5414;59.782;16.378;2022-07-17T00:23:15;0.57;;;0.57;;
10725;SDS011;5414;59.782;16.378;2022-07-17T00:25:42;0.80;;;0.60;;
10725;SDS011;5414;59.782;16.378;2022-07-17T00:28:08;1.33;;;0.57;;
10725;SDS011;5414;59.782;16.378;2022-07-17T00:30:35;1.10;;;0.57;;
10725;SDS011;5414;59.782;16.378;2022-07-17T00:33:03;0.60;;;0.60;;
10725;SDS011;5414;59.782;16.378;2022-07-17T00:35:29;0.60;;;0.60;;
10725;SDS011;5414;59.782;16.378;2022-07-17T00:37:55;0.53;;;0.53;;
10725;SDS011;5414;59.782;16.378;2022-07-17T00:40:22;0.47;;;0.47;;
10725;SDS011;5414;59.782;16.378;2022-07-17T00:42:49;0.60;;;0.60;;
10725;SDS011;5414;59.782;16.378;2022-07-17T00:45:15;1.87;;;0.53;;
10725;SDS011;5414;59.782;16.378;2022-07-17T00:47:58;0.57;;;0.57;;
10725;SDS011;5414;59.782;16.378;2022-07-17T00:50:30;0.50;;;0.50;;
10725;SDS011;5414;59.782;16.378;2022-07-17T00:52:57;0.40;;;0.40;;
10725;SDS011;5414;59.782;16.378;2022-07-17T00:55:23;0.63;;;0.63;;
10725;SDS011;5414;59.782;16.378;2022-07-17T00:57:50;0.70;;;0.60;;
10725;SDS011;5414;59.782;16.378;2022-07-17T01:00:17;0.50;;;0.50;;
10725;SDS011;5414;59.782;16.378;2022-07-17T01:02:47;1.07;;;0.40;;
10725;SDS011;5414;59.782;16.378;2022-07-17T01:05:14;0.60;;;0.60;;
10725;SDS011;5414;59.782;16.378;2022-07-17T01:07:40;0.57;;;0.57;;
10725;SDS011;5414;59.782;16.378;2022-07-17T01:10:06;0.60;;;0.60;;
10725;SDS011;5414;59.782;16.378;2022-07-17T01:12:32;1.00;;;0.60;;
10725;SDS011;5414;59.782;16.378;2022-07-17T01:14:59;0.60;;;0.60;;
10725;SDS011;5414;59.782;16.378;2022-07-17T01:17:25;1.13;;;0.57;;
10725;SDS011;5414;59.782;16.378;2022-07-17T01:19:51;0.80;;;0.40;;
10725;SDS011;5414;59.782;16.378;2022-07-17T01:22:18;1.27;;;0.40;;
10725;SDS011;5414;59.782;16.378;2022-07-17T01:24:44;0.67;;;0.67;;
10725;SDS011;5414;59.782;16.378;2022-07-17T01:27:11;1.37;;;0.60;;
10725;SDS011;5414;59.782;16.378;2022-07-17T01:29:37;1.50;;;0.70;;
10725;SDS011;5414;59.782;16.378;2022-07-17T01:32:03;0.80;;;0.50;;
10725;SDS011;5414;59.782;16.378;2022-07-17T01:34:29;0.67;;;0.67;;
10725;SDS011;5414;59.782;16.378;2022-07-17T01:36:55;2.33;;;0.70;;
10725;SDS011;5414;59.782;16.378;2022-07-17T01:39:21;1.13;;;0.60;;
10725;SDS011;5414;59.782;16.378;2022-07-17T01:42:08;0.50;;;0.50;;
10725;SDS011;5414;59.782;16.378;2022-07-17T01:44:34;0.90;;;0.67;;
10725;SDS011;5414;59.782;16.378;2022-07-17T01:47:00;2.20;;;0.53;;
10725;SDS011;5414;59.782;16.378;2022-07-17T01:49:26;0.70;;;0.53;;
10725;SDS011;5414;59.782;16.378;2022-07-17T01:51:52;1.00;;;0.50;;
10725;SDS011;5414;59.782;16.378;2022-07-17T01:54:18;0.57;;;0.50;;
10725;SDS011;5414;59.782;16.378;2022-07-17T01:56:44;0.50;;;0.50;;
10725;SDS011;5414;59.782;16.378;2022-07-17T01:59:10;0.50;;;0.50;;
10725;SDS011;5414;59.782;16.378;2022-07-17T02:01:36;1.43;;;0.60;;
10725;SDS011;5414;59.782;16.378;2022-07-17T02:04:02;0.67;;;0.57;;
10725;SDS011;5414;59.782;16.378;2022-07-17T02:06:28;0.50;;;0.50;;
10725;SDS011;5414;59.782;16.378;2022-07-17T02:08:54;0.50;;;0.43;;
10725;SDS011;5414;59.782;16.378;2022-07-17T02:11:20;0.60;;;0.60;;
10725;SDS011;5414;59.782;16.378;2022-07-17T02:13:46;1.33;;;0.50;;
10725;SDS011;5414;59.782;16.378;2022-07-17T02:16:12;0.73;;;0.50;;
10725;SDS011;5414;59.782;16.378;2022-07-17T02:18:38;0.50;;;0.50;;
10725;SDS011;5414;59.782;16.378;2022-07-17T02:21:04;1.93;;;0.60;;
10725;SDS011;5414;59.782;16.378;2022-07-17T02:23:30;1.00;;;0.60;;
10725;SDS011;5414;59.782;16.378;2022-07-17T02:25:56;0.70;;;0.70;;
10725;SDS011;5414;59.782;16.378;2022-07-17T02:28:23;1.63;;;0.50;;
10725;SDS011;5414;59.782;16.378;2022-07-17T02:30:49;0.60;;;0.60;;
10725;SDS011;5414;59.782;16.378;2022-07-17T02:33:15;0.50;;;0.50;;
10725;SDS011;5414;59.782;16.378;2022-07-17T02:35:41;0.80;;;0.40;;
10725;SDS011;5414;59.782;16.378;2022-07-17T02:38:07;0.70;;;0.60;;
10725;SDS011;5414;59.782;16.378;2022-07-17T02:40:33;0.50;;;0.50;;
10725;SDS011;5414;59.782;16.378;2022-07-17T02:42:59;1.40;;;0.70;;
10725;SDS011;5414;59.782;16.378;2022-07-17T02:45:25;0.50;;;0.50;;
10725;SDS011;5414;59.782;16.378;2022-07-17T02:47:51;0.50;;;0.50;;
10725;SDS011;5414;59.782;16.378;2022-07-17T02:50:22;0.50;;;0.50;;
10725;SDS011;5414;59.782;16.378;2022-07-17T02:52:48;0.50;;;0.50;;
10725;SDS011;5414;59.782;16.378;2022-07-17T02:55:14;0.67;;;0.50;;
10725;SDS011;5414;59.782;16.378;2022-07-17T02:57:41;1.53;;;0.50;;
10725;SDS011;5414;59.782;16.378;2022-07-17T03:00:08;0.50;;;0.50;;
10725;SDS011;5414;59.782;16.378;2022-07-17T03:02:35;0.60;;;0.60;;
10725;SDS011;5414;59.782;16.378;2022-07-17T03:05:02;1.00;;;0.60;;
10725;SDS011;5414;59.782;16.378;2022-07-17T03:07:28;1.07;;;0.60;;
10725;SDS011;5414;59.782;16.378;2022-07-17T03:09:54;0.43;;;0.43;;
10725;SDS011;5414;59.782;16.378;2022-07-17T03:12:20;0.50;;;0.47;;
10725;SDS011;5414;59.782;16.378;2022-07-17T03:14:46;0.50;;;0.50;;
10725;SDS011;5414;59.782;16.378;2022-07-17T03:17:12;1.80;;;0.60;;
10725;SDS011;5414;59.782;16.378;2022-07-17T03:19:38;0.40;;;0.40;;
10725;SDS011;5414;59.782;16.378;2022-07-17T03:22:04;0.50;;;0.50;;
10725;SDS011;5414;59.782;16.378;2022-07-17T03:24:30;0.77;;;0.50;;
10725;SDS011;5414;59.782;16.378;2022-07-17T03:26:57;0.53;;;0.53;;
10725;SDS011;5414;59.782;16.378;2022-07-17T03:29:23;0.63;;;0.50;;
10725;SDS011;5414;59.782;16.378;2022-07-17T03:31:49;1.60;;;0.50;;
10725;SDS011;5414;59.782;16.378;2022-07-17T03:34:15;0.40;;;0.40;;
10725;SDS011;5414;59.782;16.378;2022-07-17T03:36:41;0.70;;;0.50;;
10725;SDS011;5414;59.782;16.378;2022-07-17T03:39:07;0.40;;;0.40;;
10725;SDS011;5414;59.782;16.378;2022-07-17T03:41:33;0.97;;;0.50;;
10725;SDS011;5414;59.782;16.378;2022-07-17T03:43:59;0.50;;;0.50;;
10725;SDS011;5414;59.782;16.378;2022-07-17T03:46:25;0.80;;;0.50;;
10725;SDS011;5414;59.782;16.378;2022-07-17T03:48:52;0.50;;;0.50;;
10725;SDS011;5414;59.782;16.378;2022-07-17T03:51:18;0.50;;;0.40;;
10725;SDS011;5414;59.782;16.378;2022-07-17T03:53:44;1.07;;;0.40;;
10725;SDS011;5414;59.782;16.378;2022-07-17T03:56:10;0.40;;;0.40;;
10725;SDS011;5414;59.782;16.378;2022-07-17T03:58:36;0.50;;;0.50;;
10725;SDS011;5414;59.782;16.378;2022-07-17T04:01:02;0.43;;;0.43;;
10725;SDS011;5414;59.782;16.378;2022-07-17T04:03:28;0.40;;;0.40;;
10725;SDS011;5414;59.782;16.378;2022-07-17T04:05:54;0.50;;;0.50;;
10725;SDS011;5414;59.782;16.378;2022-07-17T04:08:20;0.37;;;0.37;;
10725;SDS011;5414;59.782;16.378;2022-07-17T04:10:46;0.40;;;0.40;;
10725;SDS011;5414;59.782;16.378;2022-07-17T04:13:12;0.77;;;0.50;;
10725;SDS011;5414;59.782;16.378;2022-07-17T04:15:38;0.30;;;0.30;;
10725;SDS011;5414;59.782;16.378;2022-07-17T04:18:28;0.40;;;0.40;;
10725;SDS011;5414;59.782;16.378;2022-07-17T04:20:56;0.40;;;0.40;;
10725;SDS011;5414;59.782;16.378;2022-07-17T04:23:22;0.30;;;0.30;;
10725;SDS011;5414;59.782;16.378;2022-07-17T04:25:48;0.37;;;0.37;;
10725;SDS011;5414;59.782;16.378;2022-07-17T04:28:14;0.40;;;0.40;;
10725;SDS011;5414;59.782;16.378;2022-07-17T04:30:40;0.70;;;0.40;;
10725;SDS011;5414;59.782;16.378;2022-07-17T04:33:06;0.40;;;0.40;;
10725;SDS011;5414;59.782;16.378;2022-07-17T04:35:33;0.30;;;0.30;;
10725;SDS011;5414;59.782;16.378;2022-07-17T04:37:59;1.23;;;0.43;;
10725;SDS011;5414;59.782;16.378;2022-07-17T04:40:25;0.33;;;0.33;;
10725;SDS011;5414;59.782;16.378;2022-07-17T04:42:51;0.40;;;0.40;;
10725;SDS011;5414;59.782;16.378;2022-07-17T04:45:17;0.50;;;0.50;;
10725;SDS011;5414;59.782;16.378;2022-07-17T04:47:43;0.47;;;0.33;;
10725;SDS011;5414;59.782;16.378;2022-07-17T04:50:09;0.47;;;0.47;;
10725;SDS011;5414;59.782;16.378;2022-07-17T04:52:35;0.40;;;0.30;;
10725;SDS011;5414;59.782;16.378;2022-07-17T04:55:02;0.30;;;0.30;;
10725;SDS011;5414;59.782;16.378;2022-07-17T04:57:28;0.40;;;0.40;;
10725;SDS011;5414;59.782;16.378;2022-07-17T04:59:54;0.20;;;0.20;;
10725;SDS011;5414;59.782;16.378;2022-07-17T05:02:20;0.30;;;0.30;;
10725;SDS011;5414;59.782;16.378;2022-07-17T05:04:46;0.40;;;0.30;;
10725;SDS011;5414;59.782;16.378;2022-07-17T05:07:13;0.30;;;0.30;;
10725;SDS011;5414;59.782;16.378;2022-07-17T05:09:39;0.20;;;0.20;;
10725;SDS011;5414;59.782;16.378;2022-07-17T05:12:05;0.23;;;0.23;;
10725;SDS011;5414;59.782;16.378;2022-07-17T05:14:32;0.20;;;0.20;;
10725;SDS011;5414;59.782;16.378;2022-07-17T05:16:58;0.50;;;0.30;;
10725;SDS011;5414;59.782;16.378;2022-07-17T05:19:24;0.30;;;0.30;;
10725;SDS011;5414;59.782;16.378;2022-07-17T05:21:50;0.30;;;0.30;;
10725;SDS011;5414;59.782;16.378;2022-07-17T05:24:16;0.20;;;0.20;;
10725;SDS011;5414;59.782;16.378;2022-07-17T05:26:42;0.50;;;0.30;;
10725;SDS011;5414;59.782;16.378;2022-07-17T05:29:08;0.20;;;0.20;;
10725;SDS011;5414;59.782;16.378;2022-07-17T05:31:34;0.97;;;0.30;;
10725;SDS011;5414;59.782;16.378;2022-07-17T05:34:00;0.20;;;0.20;;
10725;SDS011;5414;59.782;16.378;2022-07-17T05:36:26;0.30;;;0.30;;
10725;SDS011;5414;59.782;16.378;2022-07-17T05:38:52;0.20;;;0.20;;
10725;SDS011;5414;59.782;16.378;2022-07-17T05:41:19;0.40;;;0.30;;
10725;SDS011;5414;59.782;16.378;2022-07-17T05:43:45;0.30;;;0.30;;
10725;SDS011;5414;59.782;16.378;2022-07-17T05:46:11;0.20;;;0.20;;
10725;SDS011;5414;59.782;16.378;2022-07-17T05:48:37;0.30;;;0.30;;
10725;SDS011;5414;59.782;16.378;2022-07-17T05:51:03;0.30;;;0.30;;
10725;SDS011;5414;59.782;16.378;2022-07-17T05:53:29;0.30;;;0.30;;
10725;SDS011;5414;59.782;16.378;2022-07-17T05:55:55;0.20;;;0.20;;
10725;SDS011;5414;59.782;16.378;2022-07-17T05:58:21;0.20;;;0.20;;
10725;SDS011;5414;59.782;16.378;2022-07-17T06:00:47;0.20;;;0.20;;
10725;SDS011;5414;59.782;16.378;2022-07-17T06:03:16;0.20;;;0.20;;
10725;SDS011;5414;59.782;16.378;2022-07-17T06:05:43;0.20;;;0.20;;
10725;SDS011;5414;59.782;16.378;2022-07-17T06:08:09;0.30;;;0.30;;
10725;SDS011;5414;59.782;16.378;2022-07-17T06:10:35;0.43;;;0.20;;
10725;SDS011;5414;59.782;16.378;2022-07-17T06:13:03;0.20;;;0.20;;
10725;SDS011;5414;59.782;16.378;2022-07-17T06:15:29;0.20;;;0.20;;
10725;SDS011;5414;59.782;16.378;2022-07-17T06:17:55;0.20;;;0.20;;
10725;SDS011;5414;59.782;16.378;2022-07-17T06:20:21;0.20;;;0.20;;
10725;SDS011;5414;59.782;16.378;2022-07-17T06:22:47;0.20;;;0.20;;
10725;SDS011;5414;59.782;16.378;2022-07-17T06:25:13;0.30;;;0.30;;
10725;SDS011;5414;59.782;16.378;2022-07-17T06:27:39;0.20;;;0.20;;
10725;SDS011;5414;59.782;16.378;2022-07-17T06:30:06;0.20;;;0.20;;
10725;SDS011;5414;59.782;16.378;2022-07-17T06:32:32;0.70;;;0.20;;
10725;SDS011;5414;59.782;16.378;2022-07-17T06:34:58;0.20;;;0.20;;
10725;SDS011;5414;59.782;16.378;2022-07-17T06:37:24;0.40;;;0.20;;
10725;SDS011;5414;59.782;16.378;2022-07-17T06:39:50;0.57;;;0.30;;
10725;SDS011;5414;59.782;16.378;2022-07-17T06:42:16;0.37;;;0.30;;
10725;SDS011;5414;59.782;16.378;2022-07-17T06:44:44;0.30;;;0.30;;
10725;SDS011;5414;59.782;16.378;2022-07-17T06:47:10;0.20;;;0.20;;
10725;SDS011;5414;59.782;16.378;2022-07-17T06:49:36;0.20;;;0.20;;
10725;SDS011;5414;59.782;16.378;2022-07-17T06:52:02;0.30;;;0.30;;
10725;SDS011;5414;59.782;16.378;2022-07-17T06:54:28;0.40;;;0.40;;
10725;SDS011;5414;59.782;16.378;2022-07-17T06:56:54;1.03;;;0.30;;
10725;SDS011;5414;59.782;16.378;2022-07-17T06:59:20;0.73;;;0.20;;
10725;SDS011;5414;59.782;16.378;2022-07-17T07:01:47;0.40;;;0.30;;
10725;SDS011;5414;59.782;16.378;2022-07-17T07:04:13;0.30;;;0.30;;
10725;SDS011;5414;59.782;16.378;2022-07-17T07:06:39;0.20;;;0.20;;
10725;SDS011;5414;59.782;16.378;2022-07-17T07:09:05;0.30;;;0.20;;
10725;SDS011;5414;59.782;16.378;2022-07-17T07:11:31;0.20;;;0.20;;
10725;SDS011;5414;59.782;16.378;2022-07-17T07:13:57;0.20;;;0.20;;
10725;SDS011;5414;59.782;16.378;2022-07-17T07:16:23;0.20;;;0.20;;
10725;SDS011;5414;59.782;16.378;2022-07-17T07:18:49;0.60;;;0.20;;
10725;SDS011;5414;59.782;16.378;2022-07-17T07:21:15;0.10;;;0.10;;
10725;SDS011;5414;59.782;16.378;2022-07-17T07:23:42;0.20;;;0.20;;
10725;SDS011;5414;59.782;16.378;2022-07-17T07:26:08;0.20;;;0.20;;
10725;SDS011;5414;59.782;16.378;2022-07-17T07:28:34;0.20;;;0.20;;
10725;SDS011;5414;59.782;16.378;2022-07-17T07:31:00;0.20;;;0.20;;
10725;SDS011;5414;59.782;16.378;2022-07-17T07:33:26;0.40;;;0.20;;
10725;SDS011;5414;59.782;16.378;2022-07-17T07:35:52;0.70;;;0.50;;
10725;SDS011;5414;59.782;16.378;2022-07-17T07:38:18;0.20;;;0.20;;
10725;SDS011;5414;59.782;16.378;2022-07-17T07:40:44;0.20;;;0.20;;
10725;SDS011;5414;59.782;16.378;2022-07-17T07:43:10;0.20;;;0.20;;
10725;SDS011;5414;59.782;16.378;2022-07-17T07:45:36;0.20;;;0.20;;
10725;SDS011;5414;59.782;16.378;2022-07-17T07:48:02;0.20;;;0.20;;
10725;SDS011;5414;59.782;16.378;2022-07-17T07:50:28;0.20;;;0.20;;
10725;SDS011;5414;59.782;16.378;2022-07-17T07:52:54;0.23;;;0.23;;
10725;SDS011;5414;59.782;16.378;2022-07-17T07:55:21;0.63;;;0.20;;
10725;SDS011;5414;59.782;16.378;2022-07-17T07:57:47;0.43;;;0.20;;
10725;SDS011;5414;59.782;16.378;2022-07-17T08:00:14;1.10;;;0.30;;
10725;SDS011;5414;59.782;16.378;2022-07-17T08:02:40;0.20;;;0.20;;
10725;SDS011;5414;59.782;16.378;2022-07-17T08:05:06;0.20;;;0.20;;
10725;SDS011;5414;59.782;16.378;2022-07-17T08:07:34;0.20;;;0.20;;
10725;SDS011;5414;59.782;16.378;2022-07-17T08:10:00;0.20;;;0.20;;
10725;SDS011;5414;59.782;16.378;2022-07-17T08:12:26;0.87;;;0.23;;
10725;SDS011;5414;59.782;16.378;2022-07-17T08:14:52;0.30;;;0.20;;
10725;SDS011;5414;59.782;16.378;2022-07-17T08:17:18;0.60;;;0.30;;
10725;SDS011;5414;59.782;16.378;2022-07-17T08:19:44;0.30;;;0.30;;
10725;SDS011;5414;59.782;16.378;2022-07-17T08:22:10;0.20;;;0.20;;
10725;SDS011;5414;59.782;16.378;2022-07-17T08:24:37;0.47;;;0.30;;
10725;SDS011;5414;59.782;16.378;2022-07-17T08:27:03;0.30;;;0.30;;
10725;SDS011;5414;59.782;16.378;2022-07-17T08:29:29;1.30;;;0.30;;
10725;SDS011;5414;59.782;16.378;2022-07-17T08:31:55;0.30;;;0.30;;
10725;SDS011;5414;59.782;16.378;2022-07-17T08:34:22;0.20;;;0.20;;
10725;SDS011;5414;59.782;16.378;2022-07-17T08:36:48;0.30;;;0.30;;
10725;SDS011;5414;59.782;16.378;2022-07-17T08:39:14;1.03;;;0.30;;
10725;SDS011;5414;59.782;16.378;2022-07-17T08:41:40;0.30;;;0.30;;
10725;SDS011;5414;59.782;16.378;2022-07-17T08:44:07;0.20;;;0.20;;
10725;SDS011;5414;59.782;16.378;2022-07-17T08:46:37;0.20;;;0.20;;
10725;SDS011;5414;59.782;16.378;2022-07-17T08:49:04;0.20;;;0.20;;
10725;SDS011;5414;59.782;16.378;2022-07-17T08:51:30;0.37;;;0.30;;
10725;SDS011;5414;59.782;16.378;2022-07-17T08:53:57;0.20;;;0.20;;
10725;SDS011;5414;59.782;16.378;2022-07-17T08:56:24;0.30;;;0.30;;
10725;SDS011;5414;59.782;16.378;2022-07-17T08:58:50;0.30;;;0.30;;
10725;SDS011;5414;59.782;16.378;2022-07-17T09:01:17;0.23;;;0.23;;
10725;SDS011;5414;59.782;16.378;2022-07-17T09:04:02;0.30;;;0.30;;
10725;SDS011;5414;59.782;16.378;2022-07-17T09:06:33;0.30;;;0.30;;
10725;SDS011;5414;59.782;16.378;2022-07-17T09:11:51;0.27;;;0.23;;
10725;SDS011;5414;59.782;16.378;2022-07-17T09:14:19;0.23;;;0.20;;
10725;SDS011;5414;59.782;16.378;2022-07-17T09:16:55;0.20;;;0.20;;
10725;SDS011;5414;59.782;16.378;2022-07-17T09:19:40;0.20;;;0.20;;
10725;SDS011;5414;59.782;16.378;2022-07-17T09:22:07;0.20;;;0.20;;
10725;SDS011;5414;59.782;16.378;2022-07-17T09:27:09;0.20;;;0.20;;
10725;SDS011;5414;59.782;16.378;2022-07-17T09:29:49;0.30;;;0.30;;
10725;SDS011;5414;59.782;16.378;2022-07-17T09:32:17;0.20;;;0.20;;
10725;SDS011;5414;59.782;16.378;2022-07-17T09:34:43;0.20;;;0.20;;
10725;SDS011;5414;59.782;16.378;2022-07-17T09:37:10;0.30;;;0.30;;
10725;SDS011;5414;59.782;16.378;2022-07-17T09:39:36;0.83;;;0.20;;
10725;SDS011;5414;59.782;16.378;2022-07-17T09:42:03;0.30;;;0.30;;
10725;SDS011;5414;59.782;16.378;2022-07-17T09:44:29;0.20;;;0.20;;
10725;SDS011;5414;59.782;16.378;2022-07-17T09:46:55;0.30;;;0.30;;
10725;SDS011;5414;59.782;16.378;2022-07-17T09:49:22;0.30;;;0.30;;
10725;SDS011;5414;59.782;16.378;2022-07-17T09:51:50;1.47;;;0.30;;
10725;SDS011;5414;59.782;16.378;2022-07-17T09:54:16;0.20;;;0.20;;
10725;SDS011;5414;59.782;16.378;2022-07-17T09:56:46;0.33;;;0.27;;
10725;SDS011;5414;59.782;16.378;2022-07-17T09:59:12;0.20;;;0.20;;
10725;SDS011;5414;59.782;16.378;2022-07-17T10:01:39;0.20;;;0.20;;
10725;SDS011;5414;59.782;16.378;2022-07-17T10:04:06;0.20;;;0.20;;
10725;SDS011;5414;59.782;16.378;2022-07-17T10:06:32;0.63;;;0.30;;
10725;SDS011;5414;59.782;16.378;2022-07-17T10:08:58;0.30;;;0.30;;
10725;SDS011;5414;59.782;16.378;2022-07-17T10:11:26;0.40;;;0.30;;
10725;SDS011;5414;59.782;16.378;2022-07-17T10:13:54;0.30;;;0.30;;
10725;SDS011;5414;59.782;16.378;2022-07-17T10:16:27;0.30;;;0.30;;
10725;SDS011;5414;59.782;16.378;2022-07-17T10:18:53;0.50;;;0.30;;
10725;SDS011;5414;59.782;16.378;2022-07-17T10:21:20;0.23;;;0.20;;
10725;SDS011;5414;59.782;16.378;2022-07-17T10:26:16;0.33;;;0.30;;
10725;SDS011;5414;59.782;16.378;2022-07-17T10:28:46;0.20;;;0.20;;
10725;SDS011;5414;59.782;16.378;2022-07-17T10:31:22;0.30;;;0.30;;
10725;SDS011;5414;59.782;16.378;2022-07-17T10:34:01;0.67;;;0.40;;
10725;SDS011;5414;59.782;16.378;2022-07-17T10:36:32;0.23;;;0.20;;
10725;SDS011;5414;59.782;16.378;2022-07-17T10:38:59;1.13;;;0.37;;
10725;SDS011;5414;59.782;16.378;2022-07-17T10:41:35;0.20;;;0.20;;
10725;SDS011;5414;59.782;16.378;2022-07-17T10:44:01;1.23;;;0.30;;
10725;SDS011;5414;59.782;16.378;2022-07-17T10:46:27;0.27;;;0.27;;
10725;SDS011;5414;59.782;16.378;2022-07-17T10:48:53;0.77;;;0.40;;
10725;SDS011;5414;59.782;16.378;2022-07-17T10:51:24;0.30;;;0.30;;
10725;SDS011;5414;59.782;16.378;2022-07-17T10:53:52;0.30;;;0.30;;
10725;SDS011;5414;59.782;16.378;2022-07-17T10:56:21;0.30;;;0.30;;
10725;SDS011;5414;59.782;16.378;2022-07-17T10:58:47;0.53;;;0.30;;
10725;SDS011;5414;59.782;16.378;2022-07-17T11:01:14;0.20;;;0.20;;
10725;SDS011;5414;59.782;16.378;2022-07-17T11:03:42;0.30;;;0.30;;
10725;SDS011;5414;59.782;16.378;2022-07-17T11:08:35;0.30;;;0.30;;
10725;SDS011;5414;59.782;16.378;2022-07-17T11:11:02;0.30;;;0.30;;
10725;SDS011;5414;59.782;16.378;2022-07-17T11:13:28;0.40;;;0.40;;
10725;SDS011;5414;59.782;16.378;2022-07-17T11:15:54;0.20;;;0.20;;
10725;SDS011;5414;59.782;16.378;2022-07-17T11:18:20;0.37;;;0.30;;
10725;SDS011;5414;59.782;16.378;2022-07-17T11:23:13;0.73;;;0.23;;
10725;SDS011;5414;59.782;16.378;2022-07-17T11:25:50;0.30;;;0.30;;
10725;SDS011;5414;59.782;16.378;2022-07-17T11:28:26;0.97;;;0.23;;
10725;SDS011;5414;59.782;16.378;2022-07-17T11:30:52;0.97;;;0.30;;
10725;SDS011;5414;59.782;16.378;2022-07-17T11:33:18;0.30;;;0.30;;
10725;SDS011;5414;59.782;16.378;2022-07-17T11:35:45;0.30;;;0.30;;
10725;SDS011;5414;59.782;16.378;2022-07-17T11:38:13;0.20;;;0.20;;
10725;SDS011;5414;59.782;16.378;2022-07-17T11:40:46;0.53;;;0.30;;
10725;SDS011;5414;59.782;16.378;2022-07-17T11:43:12;0.30;;;0.30;;
10725;SDS011;5414;59.782;16.378;2022-07-17T11:45:38;0.30;;;0.30;;
10725;SDS011;5414;59.782;16.378;2022-07-17T11:48:05;0.20;;;0.20;;
10725;SDS011;5414;59.782;16.378;2022-07-17T11:50:31;0.30;;;0.30;;
10725;SDS011;5414;59.782;16.378;2022-07-17T11:53:00;0.37;;;0.37;;
10725;SDS011;5414;59.782;16.378;2022-07-17T11:55:34;0.30;;;0.30;;
10725;SDS011;5414;59.782;16.378;2022-07-17T11:58:01;0.20;;;0.20;;
10725;SDS011;5414;59.782;16.378;2022-07-17T12:00:27;0.30;;;0.30;;
10725;SDS011;5414;59.782;16.378;2022-07-17T12:03:00;0.73;;;0.20;;
10725;SDS011;5414;59.782;16.378;2022-07-17T12:05:27;0.30;;;0.30;;
10725;SDS011;5414;59.782;16.378;2022-07-17T12:07:53;0.20;;;0.20;;
10725;SDS011;5414;59.782;16.378;2022-07-17T12:10:21;0.33;;;0.33;;
10725;SDS011;5414;59.782;16.378;2022-07-17T12:13:06;0.30;;;0.30;;
10725;SDS011;5414;59.782;16.378;2022-07-17T12:15:39;0.30;;;0.30;;
10725;SDS011;5414;59.782;16.378;2022-07-17T12:18:07;0.20;;;0.20;;
10725;SDS011;5414;59.782;16.378;2022-07-17T12:20:41;0.30;;;0.30;;
10725;SDS011;5414;59.782;16.378;2022-07-17T12:23:08;0.30;;;0.30;;
10725;SDS011;5414;59.782;16.378;2022-07-17T12:25:34;0.83;;;0.30;;
10725;SDS011;5414;59.782;16.378;2022-07-17T12:28:00;0.33;;;0.30;;
10725;SDS011;5414;59.782;16.378;2022-07-17T12:30:26;0.30;;;0.30;;
10725;SDS011;5414;59.782;16.378;2022-07-17T12:32:53;0.30;;;0.30;;
10725;SDS011;5414;59.782;16.378;2022-07-17T12:35:19;0.30;;;0.30;;
10725;SDS011;5414;59.782;16.378;2022-07-17T12:37:45;0.30;;;0.30;;
10725;SDS011;5414;59.782;16.378;2022-07-17T12:40:11;0.30;;;0.30;;
10725;SDS011;5414;59.782;16.378;2022-07-17T12:42:37;0.40;;;0.40;;
10725;SDS011;5414;59.782;16.378;2022-07-17T12:45:04;0.27;;;0.27;;
10725;SDS011;5414;59.782;16.378;2022-07-17T12:47:30;1.13;;;0.30;;
10725;SDS011;5414;59.782;16.378;2022-07-17T12:49:57;0.20;;;0.20;;
10725;SDS011;5414;59.782;16.378;2022-07-17T12:52:23;0.30;;;0.30;;
10725;SDS011;5414;59.782;16.378;2022-07-17T12:54:49;0.30;;;0.30;;
10725;SDS011;5414;59.782;16.378;2022-07-17T12:57:15;0.30;;;0.30;;
10725;SDS011;5414;59.782;16.378;2022-07-17T12:59:41;0.67;;;0.30;;
10725;SDS011;5414;59.782;16.378;2022-07-17T13:02:07;0.37;;;0.37;;
10725;SDS011;5414;59.782;16.378;2022-07-17T13:04:34;0.30;;;0.30;;
10725;SDS011;5414;59.782;16.378;2022-07-17T13:07:00;0.30;;;0.30;;
10725;SDS011;5414;59.782;16.378;2022-07-17T13:09:26;0.30;;;0.30;;
10725;SDS011;5414;59.782;16.378;2022-07-17T13:11:52;0.30;;;0.30;;
10725;SDS011;5414;59.782;16.378;2022-07-17T13:14:19;0.37;;;0.37;;
10725;SDS011;5414;59.782;16.378;2022-07-17T13:16:46;0.30;;;0.30;;
10725;SDS011;5414;59.782;16.378;2022-07-17T13:19:12;0.40;;;0.40;;
10725;SDS011;5414;59.782;16.378;2022-07-17T13:21:38;0.40;;;0.40;;
10725;SDS011;5414;59.782;16.378;2022-07-17T13:24:04;0.23;;;0.23;;
10725;SDS011;5414;59.782;16.378;2022-07-17T13:26:30;0.30;;;0.30;;
10725;SDS011;5414;59.782;16.378;2022-07-17T13:28:56;0.30;;;0.30;;
10725;SDS011;5414;59.782;16.378;2022-07-17T13:31:22;0.30;;;0.30;;
10725;SDS011;5414;59.782;16.378;2022-07-17T13:33:48;0.30;;;0.30;;
10725;SDS011;5414;59.782;16.378;2022-07-17T13:36:14;0.50;;;0.30;;
10725;SDS011;5414;59.782;16.378;2022-07-17T13:38:40;1.07;;;0.30;;
10725;SDS011;5414;59.782;16.378;2022-07-17T13:41:07;0.30;;;0.30;;
10725;SDS011;5414;59.782;16.378;2022-07-17T13:43:33;0.40;;;0.40;;
10725;SDS011;5414;59.782;16.378;2022-07-17T13:45:59;0.30;;;0.30;;
10725;SDS011;5414;59.782;16.378;2022-07-17T13:48:25;0.27;;;0.27;;
10725;SDS011;5414;59.782;16.378;2022-07-17T13:50:51;0.30;;;0.30;;
10725;SDS011;5414;59.782;16.378;2022-07-17T13:53:17;0.30;;;0.30;;
10725;SDS011;5414;59.782;16.378;2022-07-17T13:55:43;0.30;;;0.30;;
10725;SDS011;5414;59.782;16.378;2022-07-17T13:58:09;0.83;;;0.33;;
10725;SDS011;5414;59.782;16.378;2022-07-17T14:00:35;0.30;;;0.30;;
10725;SDS011;5414;59.782;16.378;2022-07-17T14:03:01;0.40;;;0.40;;
10725;SDS011;5414;59.782;16.378;2022-07-17T14:05:27;0.30;;;0.30;;
10725;SDS011;5414;59.782;16.378;2022-07-17T14:07:53;0.77;;;0.40;;
10725;SDS011;5414;59.782;16.378;2022-07-17T14:10:19;0.47;;;0.40;;
10725;SDS011;5414;59.782;16.378;2022-07-17T14:12:45;0.40;;;0.40;;
10725;SDS011;5414;59.782;16.378;2022-07-17T14:15:12;0.33;;;0.33;;
10725;SDS011;5414;59.782;16.378;2022-07-17T14:17:38;0.30;;;0.30;;
10725;SDS011;5414;59.782;16.378;2022-07-17T14:20:04;0.30;;;0.30;;
10725;SDS011;5414;59.782;16.378;2022-07-17T14:22:30;0.40;;;0.40;;
10725;SDS011;5414;59.782;16.378;2022-07-17T14:24:56;0.40;;;0.40;;
10725;SDS011;5414;59.782;16.378;2022-07-17T14:27:22;0.30;;;0.30;;
10725;SDS011;5414;59.782;16.378;2022-07-17T14:29:48;0.50;;;0.50;;
10725;SDS011;5414;59.782;16.378;2022-07-17T14:32:15;0.40;;;0.40;;
10725;SDS011;5414;59.782;16.378;2022-07-17T14:34:41;0.30;;;0.30;;
10725;SDS011;5414;59.782;16.378;2022-07-17T14:37:07;0.40;;;0.40;;
10725;SDS011;5414;59.782;16.378;2022-07-17T14:39:33;0.30;;;0.30;;
10725;SDS011;5414;59.782;16.378;2022-07-17T14:42:00;0.77;;;0.40;;
10725;SDS011;5414;59.782;16.378;2022-07-17T14:44:26;0.30;;;0.30;;
10725;SDS011;5414;59.782;16.378;2022-07-17T14:46:52;0.30;;;0.30;;
10725;SDS011;5414;59.782;16.378;2022-07-17T14:49:18;0.30;;;0.30;;
10725;SDS011;5414;59.782;16.378;2022-07-17T14:51:45;0.40;;;0.40;;
10725;SDS011;5414;59.782;16.378;2022-07-17T14:54:11;0.37;;;0.37;;
10725;SDS011;5414;59.782;16.378;2022-07-17T14:56:37;0.40;;;0.40;;
10725;SDS011;5414;59.782;16.378;2022-07-17T14:59:03;1.03;;;0.40;;